createdAt,value
2017-11-05T00:01:02.001Z,99.99
2017-11-05T00:02:16.112Z,99.99
2017-11-05T00:03:29.040Z,99.99
2017-11-05T00:04:41.973Z,99.99
2017-11-05T00:05:55.958Z,99.99
2017-11-05T00:07:09.484Z,99.99
2017-11-05T00:08:23.595Z,99.99
2017-11-05T00:09:36.484Z,99.99
2017-11-05T00:10:50.543Z,99.99
2017-11-05T00:12:03.024Z,99.99
2017-11-05T00:13:16.461Z,99.99
2017-11-05T00:14:28.687Z,99.99
2017-11-05T00:15:42.050Z,99.99
2017-11-05T00:16:55.388Z,99.99
2017-11-05T00:18:08.936Z,99.99
2017-11-05T00:19:22.450Z,99.99
2017-11-05T00:20:35.379Z,99.99
2017-11-05T00:21:48.743Z,99.99
2017-11-05T00:23:01.547Z,99.99
2017-11-05T00:24:14.375Z,99.99
2017-11-05T00:25:26.619Z,99.99
2017-11-05T00:26:38.883Z,99.99
2017-11-05T00:27:51.150Z,99.99
2017-11-05T00:29:04.594Z,99.99
2017-11-05T00:30:16.860Z,99.99
2017-11-05T00:31:29.643Z,99.99
2017-11-05T00:32:42.081Z,99.99
2017-11-05T00:33:55.487Z,99.99
2017-11-05T00:35:08.980Z,99.99
2017-11-05T00:36:23.009Z,99.99
2017-11-05T00:37:36.163Z,99.99
2017-11-05T00:38:49.961Z,99.99
2017-11-05T00:40:04.004Z,99.99
2017-11-05T00:41:16.674Z,99.99
2017-11-05T00:42:29.891Z,99.99
2017-11-05T00:43:42.810Z,99.99
2017-11-05T00:44:56.289Z,99.99
2017-11-05T00:46:10.397Z,99.99
2017-11-05T00:47:23.726Z,99.99
2017-11-05T00:48:37.854Z,99.99
2017-11-05T00:49:51.485Z,99.99
2017-11-05T00:51:03.613Z,99.99
2017-11-05T00:52:17.548Z,99.99
2017-11-05T00:53:30.823Z,99.99
2017-11-05T00:54:43.610Z,99.99
2017-11-05T00:55:56.951Z,99.99
2017-11-05T00:57:09.199Z,99.99
2017-11-05T00:58:22.569Z,99.99
2017-11-05T00:59:35.153Z,99.99
2017-11-05T01:00:47.910Z,99.99
2017-11-05T01:02:01.249Z,99.99
2017-11-05T01:03:14.022Z,99.99
2017-11-05T01:04:27.305Z,99.99
2017-11-05T01:05:40.598Z,99.99
2017-11-05T01:06:53.320Z,99.99
2017-11-05T01:08:06.108Z,99.99
2017-11-05T01:09:19.436Z,99.99
2017-11-05T01:10:32.226Z,99.99
2017-11-05T01:11:44.978Z,99.99
2017-11-05T01:12:57.769Z,99.99
2017-11-05T01:14:10.577Z,99.99
2017-11-05T01:15:22.776Z,99.99
2017-11-05T01:16:35.041Z,99.99
2017-11-05T01:17:47.325Z,99.99
2017-11-05T01:18:59.563Z,99.99
2017-11-05T01:20:12.345Z,99.99
2017-11-05T01:21:25.150Z,99.99
2017-11-05T01:22:37.423Z,99.99
2017-11-05T01:23:50.174Z,99.99
2017-11-05T01:25:03.569Z,99.99
2017-11-05T01:26:16.982Z,99.99
2017-11-05T01:27:30.530Z,99.99
2017-11-05T01:28:44.355Z,99.99
2017-11-05T01:29:57.408Z,99.99
2017-11-05T01:31:10.201Z,99.99
2017-11-05T01:32:22.986Z,99.99
2017-11-05T01:33:36.310Z,99.99
2017-11-05T01:34:48.528Z,99.99
2017-11-05T01:36:01.846Z,99.99
2017-11-05T01:37:14.676Z,99.99
2017-11-05T01:38:27.743Z,99.99
2017-11-05T01:39:41.093Z,99.99
2017-11-05T01:40:53.525Z,99.99
2017-11-05T01:42:06.329Z,99.99
2017-11-05T01:43:19.628Z,99.99
2017-11-05T01:44:32.573Z,99.99
2017-11-05T01:45:45.895Z,99.99
2017-11-05T01:46:59.204Z,99.99
2017-11-05T01:48:12.545Z,99.99
2017-11-05T01:49:24.875Z,99.99
2017-11-05T01:50:37.143Z,99.99
2017-11-05T01:51:50.480Z,99.99
2017-11-05T01:53:03.321Z,99.99
2017-11-05T01:54:16.218Z,99.99
2017-11-05T01:55:29.695Z,99.99
2017-11-05T01:56:42.797Z,99.99
2017-11-05T01:57:55.648Z,99.99
2017-11-05T01:59:08.438Z,99.99
2017-11-05T02:00:21.263Z,99.99
2017-11-05T02:01:34.589Z,99.99
2017-11-05T02:02:47.966Z,99.99
2017-11-05T02:04:00.982Z,99.99
2017-11-05T02:05:14.326Z,99.99
2017-11-05T02:06:27.147Z,99.99
2017-11-05T02:07:39.979Z,99.99
2017-11-05T02:08:53.270Z,99.99
2017-11-05T02:10:06.024Z,99.99
2017-11-05T02:11:18.845Z,99.99
2017-11-05T02:12:32.309Z,99.99
2017-11-05T02:13:45.144Z,99.99
2017-11-05T02:14:58.419Z,99.99
2017-11-05T02:16:10.705Z,99.99
2017-11-05T02:17:24.221Z,99.99
2017-11-05T02:18:37.595Z,99.99
2017-11-05T02:19:51.736Z,99.99
2017-11-05T02:21:04.478Z,99.99
2017-11-05T02:22:17.980Z,99.99
2017-11-05T02:23:31.735Z,99.99
2017-11-05T02:24:44.873Z,99.99
2017-11-05T02:25:57.603Z,99.99
2017-11-05T02:27:11.194Z,99.99
2017-11-05T02:28:24.482Z,99.99
2017-11-05T02:29:38.340Z,99.99
2017-11-05T02:30:50.654Z,99.99
2017-11-05T02:32:04.546Z,99.99
2017-11-05T02:33:19.049Z,99.99
2017-11-05T02:34:32.334Z,99.99
2017-11-05T02:35:45.640Z,99.99
2017-11-05T02:36:58.462Z,99.99
2017-11-05T02:38:10.719Z,99.99
2017-11-05T02:39:24.041Z,99.99
2017-11-05T02:40:36.843Z,99.99
2017-11-05T02:41:49.291Z,99.99
2017-11-05T02:43:03.337Z,99.99
2017-11-05T02:44:17.364Z,99.99
2017-11-05T02:45:31.498Z,99.99
2017-11-05T02:46:45.530Z,99.99
2017-11-05T02:47:59.548Z,99.99
2017-11-05T02:49:12.959Z,99.99
2017-11-05T02:50:27.043Z,99.99
2017-11-05T02:51:41.386Z,99.99
2017-11-05T02:52:55.604Z,99.99
2017-11-05T02:54:09.165Z,99.99
2017-11-05T02:55:22.611Z,99.99
2017-11-05T02:56:36.155Z,99.99
2017-11-05T02:57:50.259Z,99.99
2017-11-05T02:59:03.457Z,99.99
2017-11-05T03:00:17.890Z,99.99
2017-11-05T03:01:32.377Z,99.99
2017-11-05T03:02:46.678Z,99.99
2017-11-05T03:04:00.824Z,99.99
2017-11-05T03:05:15.077Z,99.99
2017-11-05T03:06:29.758Z,99.99
2017-11-05T03:07:42.346Z,99.99
2017-11-05T03:08:56.464Z,99.99
2017-11-05T03:10:10.741Z,99.99
2017-11-05T03:11:24.288Z,99.99
2017-11-05T03:12:37.924Z,99.99
2017-11-05T03:13:51.720Z,99.99
2017-11-05T03:15:04.629Z,99.99
2017-11-05T03:16:18.754Z,99.99
2017-11-05T03:17:33.229Z,99.99
2017-11-05T03:18:46.812Z,99.99
2017-11-05T03:20:00.439Z,99.99
2017-11-05T03:21:14.683Z,99.99
2017-11-05T03:22:27.803Z,99.99
2017-11-05T03:23:42.008Z,99.99
2017-11-05T03:24:56.374Z,99.99
2017-11-05T03:26:10.043Z,99.99
2017-11-05T03:27:24.301Z,99.99
2017-11-05T03:28:38.374Z,99.99
2017-11-05T03:29:52.574Z,99.99
2017-11-05T03:31:05.469Z,99.99
2017-11-05T03:32:18.332Z,99.99
2017-11-05T03:33:32.406Z,99.99
2017-11-05T03:34:46.588Z,99.99
2017-11-05T03:36:00.022Z,99.99
2017-11-05T03:37:13.461Z,99.99
2017-11-05T03:38:27.776Z,99.99
2017-11-05T03:39:41.477Z,99.99
2017-11-05T03:40:55.517Z,99.99
2017-11-05T03:42:09.638Z,99.99
2017-11-05T03:43:23.927Z,99.99
2017-11-05T03:44:38.048Z,99.99
2017-11-05T03:45:52.259Z,99.99
2017-11-05T03:47:06.264Z,99.99
2017-11-05T03:48:20.272Z,99.99
2017-11-05T03:49:33.683Z,99.99
2017-11-05T03:50:47.085Z,99.99
2017-11-05T03:52:00.650Z,99.99
2017-11-05T03:53:14.682Z,99.99
2017-11-05T03:54:28.588Z,99.99
2017-11-05T03:55:42.584Z,99.99
2017-11-05T03:56:55.661Z,99.99
2017-11-05T03:58:09.672Z,99.99
2017-11-05T03:59:23.104Z,99.99
2017-11-05T04:00:37.076Z,99.99
2017-11-05T04:01:51.260Z,99.99
2017-11-05T04:03:05.614Z,99.99
2017-11-05T04:04:19.107Z,99.99
2017-11-05T04:05:32.534Z,99.99
2017-11-05T04:06:46.552Z,99.99
2017-11-05T04:08:00.983Z,99.99
2017-11-05T04:09:16.321Z,99.99
2017-11-05T04:10:29.779Z,99.99
2017-11-05T04:11:43.767Z,99.99
2017-11-05T04:12:57.778Z,99.99
2017-11-05T04:14:11.790Z,99.99
2017-11-05T04:15:51.502Z,99.99
2017-11-05T04:17:05.724Z,99.99
2017-11-05T04:18:19.823Z,99.99
2017-11-05T04:19:34.178Z,99.99
2017-11-05T04:20:48.215Z,99.99
2017-11-05T04:22:01.104Z,99.99
2017-11-05T04:23:14.530Z,99.99
2017-11-05T04:24:28.555Z,99.99
2017-11-05T04:25:42.590Z,99.99
2017-11-05T04:26:56.097Z,99.99
2017-11-05T04:28:10.168Z,99.99
2017-11-05T04:29:38.757Z,99.99
2017-11-05T04:30:52.178Z,99.99
2017-11-05T04:32:05.066Z,99.99
2017-11-05T04:33:19.088Z,99.99
2017-11-05T04:34:33.146Z,99.99
2017-11-05T04:35:47.132Z,99.99
2017-11-05T04:37:00.597Z,99.99
2017-11-05T04:38:14.609Z,99.99
2017-11-05T04:39:28.613Z,99.99
2017-11-05T04:40:49.668Z,99.99
2017-11-05T04:42:04.650Z,99.99
2017-11-05T04:43:18.542Z,99.99
2017-11-05T04:44:33.116Z,99.99
2017-11-05T04:45:47.338Z,99.99
2017-11-05T04:47:01.627Z,99.99
2017-11-05T04:48:15.820Z,99.99
2017-11-05T04:49:29.703Z,99.99
2017-11-05T04:50:43.740Z,99.99
2017-11-05T04:51:57.746Z,99.99
2017-11-05T04:53:11.194Z,99.99
2017-11-05T04:54:25.228Z,99.99
2017-11-05T04:55:38.425Z,99.99
2017-11-05T04:56:52.516Z,99.99
2017-11-05T04:58:06.823Z,99.99
2017-11-05T04:59:19.865Z,99.99
2017-11-05T05:00:33.810Z,99.99
2017-11-05T05:01:47.796Z,99.99
2017-11-05T05:03:00.958Z,99.99
2017-11-05T05:04:15.452Z,99.99
2017-11-05T05:05:29.645Z,99.99
2017-11-05T05:06:43.304Z,99.99
2017-11-05T05:07:56.412Z,99.99
2017-11-05T05:09:10.043Z,99.99
2017-11-05T05:10:24.708Z,99.99
2017-11-05T05:11:39.133Z,99.99
2017-11-05T05:12:52.308Z,99.99
2017-11-05T05:14:06.770Z,99.99
2017-11-05T05:15:20.510Z,99.99
2017-11-05T05:16:33.868Z,99.99
2017-11-05T05:17:48.298Z,99.99
2017-11-05T05:19:02.092Z,99.99
2017-11-05T05:20:16.516Z,99.99
2017-11-05T05:21:30.440Z,99.99
2017-11-05T05:22:43.483Z,99.99
2017-11-05T05:23:57.436Z,99.99
2017-11-05T05:25:11.773Z,99.99
2017-11-05T05:26:24.925Z,99.99
2017-11-05T05:27:38.591Z,99.99
2017-11-05T05:28:53.059Z,99.99
2017-11-05T05:30:06.735Z,99.99
2017-11-05T05:31:20.889Z,99.99
2017-11-05T05:32:35.060Z,99.99
2017-11-05T05:33:48.774Z,99.99
2017-11-05T05:35:02.391Z,99.99
2017-11-05T05:36:16.234Z,99.99
2017-11-05T05:37:30.038Z,99.99
2017-11-05T05:38:43.560Z,99.99
2017-11-05T05:39:57.610Z,99.99
2017-11-05T05:41:11.766Z,99.99
2017-11-05T05:42:26.083Z,99.99
2017-11-05T05:43:40.367Z,99.99
2017-11-05T05:44:52.814Z,99.99
2017-11-05T05:46:06.505Z,99.99
2017-11-05T05:47:20.436Z,99.99
2017-11-05T05:48:35.242Z,99.99
2017-11-05T05:49:49.343Z,99.99
2017-11-05T05:51:03.480Z,99.99
2017-11-05T05:52:17.707Z,99.99
2017-11-05T05:53:32.015Z,99.99
2017-11-05T05:54:46.187Z,99.99
2017-11-05T05:56:00.308Z,99.99
2017-11-05T05:57:14.798Z,99.99
2017-11-05T05:58:28.409Z,99.99
2017-11-05T05:59:42.621Z,99.99
2017-11-05T06:00:56.402Z,99.99
2017-11-05T06:02:10.461Z,99.99
2017-11-05T06:03:24.103Z,99.99
2017-11-05T06:04:38.429Z,99.99
2017-11-05T06:05:52.070Z,99.99
2017-11-05T06:07:05.840Z,99.99
2017-11-05T06:08:19.311Z,99.99
2017-11-05T06:09:33.443Z,99.99
2017-11-05T06:10:47.746Z,99.99
2017-11-05T06:12:01.975Z,99.99
2017-11-05T06:13:14.986Z,99.99
2017-11-05T06:14:28.458Z,99.99
2017-11-05T06:15:41.971Z,99.99
2017-11-05T06:16:55.609Z,99.99
2017-11-05T06:18:10.214Z,99.99
2017-11-05T06:19:23.722Z,99.99
2017-11-05T06:20:37.282Z,99.99
2017-11-05T06:21:51.315Z,99.99
2017-11-05T06:23:05.401Z,99.99
2017-11-05T06:24:19.422Z,99.99
2017-11-05T06:25:32.848Z,99.99
2017-11-05T06:26:46.230Z,99.99
2017-11-05T06:27:59.701Z,99.99
2017-11-05T06:29:13.733Z,99.99
2017-11-05T06:30:27.143Z,99.99
2017-11-05T06:31:40.566Z,99.99
2017-11-05T06:32:54.578Z,99.99
2017-11-05T06:34:08.046Z,99.99
2017-11-05T06:35:21.485Z,99.99
2017-11-05T06:36:35.527Z,99.99
2017-11-05T06:37:49.577Z,99.99
2017-11-05T06:39:03.037Z,99.99
2017-11-05T06:40:16.477Z,99.99
2017-11-05T06:41:30.495Z,99.99
2017-11-05T06:42:44.692Z,99.99
2017-11-05T06:43:58.831Z,99.99
2017-11-05T06:45:13.081Z,99.99
2017-11-05T06:46:27.106Z,99.99
2017-11-05T06:47:41.151Z,99.99
2017-11-05T06:48:54.619Z,99.99
2017-11-05T06:50:08.711Z,99.99
2017-11-05T06:51:22.736Z,99.99
2017-11-05T06:52:36.852Z,99.99
2017-11-05T06:53:50.981Z,99.99
2017-11-05T06:55:05.303Z,99.99
2017-11-05T06:56:19.068Z,99.99
2017-11-05T06:57:33.445Z,99.99
2017-11-05T06:58:47.110Z,99.99
2017-11-05T07:00:01.311Z,99.99
2017-11-05T07:01:15.380Z,99.99
2017-11-05T07:02:28.357Z,99.99
2017-11-05T07:03:41.882Z,99.99
2017-11-05T07:04:55.319Z,99.99
2017-11-05T07:06:09.365Z,99.99
2017-11-05T07:07:22.047Z,99.99
2017-11-05T07:08:35.371Z,99.99
2017-11-05T07:09:48.710Z,99.99
2017-11-05T07:11:02.070Z,99.99
2017-11-05T07:12:14.886Z,99.99
2017-11-05T07:13:27.112Z,99.99
2017-11-05T07:14:39.878Z,99.99
2017-11-05T07:15:53.386Z,99.99
2017-11-05T07:17:06.179Z,99.99
2017-11-05T07:18:19.542Z,99.99
2017-11-05T07:19:32.359Z,99.99
2017-11-05T07:20:45.718Z,99.99
2017-11-05T07:21:58.523Z,99.99
2017-11-05T07:23:11.839Z,99.99
2017-11-05T07:24:24.064Z,99.99
2017-11-05T07:25:37.331Z,99.99
2017-11-05T07:26:50.684Z,99.99
2017-11-05T07:28:03.943Z,99.99
2017-11-05T07:29:16.202Z,99.99
2017-11-05T07:30:27.895Z,99.99
2017-11-05T07:31:41.223Z,99.99
2017-11-05T07:32:54.022Z,99.99
2017-11-05T07:34:07.370Z,99.99
2017-11-05T07:35:20.380Z,99.99
2017-11-05T07:36:33.239Z,99.99
2017-11-05T07:37:46.938Z,99.99
2017-11-05T07:39:00.190Z,99.99
2017-11-05T07:40:13.560Z,99.99
2017-11-05T07:41:27.822Z,99.99
2017-11-05T07:42:40.769Z,99.99
2017-11-05T07:43:54.178Z,99.99
2017-11-05T07:45:08.158Z,99.99
2017-11-05T07:46:20.858Z,99.99
2017-11-05T07:47:33.707Z,99.99
2017-11-05T07:48:47.580Z,99.99
2017-11-05T07:50:01.688Z,99.99
2017-11-05T07:51:15.237Z,99.99
2017-11-05T07:52:28.855Z,99.99
2017-11-05T07:53:42.726Z,99.99
2017-11-05T07:54:55.535Z,99.99
2017-11-05T07:56:08.375Z,99.99
2017-11-05T07:57:22.522Z,99.99
2017-11-05T07:58:36.193Z,99.99
2017-11-05T07:59:50.213Z,99.99
2017-11-05T08:01:03.758Z,99.99
2017-11-05T08:02:16.978Z,99.99
2017-11-05T08:03:30.060Z,99.99
2017-11-05T08:04:43.372Z,99.99
2017-11-05T08:05:56.884Z,99.99
2017-11-05T08:07:08.786Z,99.99
2017-11-05T08:08:22.089Z,99.99
2017-11-05T08:09:34.836Z,99.99
2017-11-05T08:10:48.194Z,99.99
2017-11-05T08:12:01.504Z,99.99
2017-11-05T08:13:14.258Z,99.99
2017-11-05T08:14:27.598Z,99.99
2017-11-05T08:15:40.344Z,99.99
2017-11-05T08:16:53.162Z,99.99
2017-11-05T08:18:05.404Z,99.99
2017-11-05T08:19:17.655Z,99.99
2017-11-05T08:20:30.414Z,99.99
2017-11-05T08:21:43.695Z,99.99
2017-11-05T08:22:56.459Z,99.99
2017-11-05T08:24:09.768Z,99.99
2017-11-05T08:25:22.009Z,99.99
2017-11-05T08:26:35.350Z,99.99
2017-11-05T08:27:48.718Z,99.99
2017-11-05T08:29:01.513Z,99.99
2017-11-05T08:30:14.283Z,99.99
2017-11-05T08:31:27.555Z,99.99
2017-11-05T08:32:40.363Z,99.99
2017-11-05T08:33:53.128Z,99.99
2017-11-05T08:35:06.434Z,99.99
2017-11-05T08:36:19.172Z,99.99
2017-11-05T08:37:32.447Z,99.99
2017-11-05T08:38:44.158Z,99.99
2017-11-05T08:39:56.956Z,99.99
2017-11-05T08:41:09.223Z,99.99
2017-11-05T08:42:22.016Z,99.99
2017-11-05T08:43:34.808Z,99.99
2017-11-05T08:44:48.064Z,99.99
2017-11-05T08:46:00.858Z,99.99
2017-11-05T08:47:14.804Z,99.99
2017-11-05T08:48:27.441Z,99.99
2017-11-05T08:49:40.229Z,99.99
2017-11-05T08:50:51.937Z,99.99
2017-11-05T08:52:04.184Z,99.99
2017-11-05T08:53:17.474Z,99.99
2017-11-05T08:54:30.264Z,99.99
2017-11-05T08:55:43.578Z,99.99
2017-11-05T08:56:55.922Z,99.99
2017-11-05T08:58:09.462Z,99.99
2017-11-05T08:59:21.724Z,99.99
2017-11-05T09:00:34.707Z,99.99
2017-11-05T09:01:46.943Z,99.99
2017-11-05T09:02:59.707Z,99.99
2017-11-05T09:04:12.455Z,99.99
2017-11-05T09:05:25.766Z,99.99
2017-11-05T09:06:39.131Z,99.99
2017-11-05T09:07:52.438Z,99.99
2017-11-05T09:09:05.219Z,99.99
2017-11-05T09:10:18.559Z,99.99
2017-11-05T09:11:30.808Z,99.99
2017-11-05T09:12:43.611Z,99.99
2017-11-05T09:13:56.919Z,99.99
2017-11-05T09:15:09.219Z,99.99
2017-11-05T09:16:21.714Z,99.99
2017-11-05T09:17:35.072Z,99.99
2017-11-05T09:18:49.202Z,99.99
2017-11-05T09:20:03.492Z,99.99
2017-11-05T09:21:16.980Z,99.99
2017-11-05T09:22:30.664Z,99.99
2017-11-05T09:23:43.360Z,99.99
2017-11-05T09:24:55.611Z,99.99
2017-11-05T09:26:08.402Z,99.99
2017-11-05T09:27:21.780Z,99.99
2017-11-05T09:28:34.523Z,99.99
2017-11-05T09:29:47.809Z,99.99
2017-11-05T09:31:01.072Z,99.99
2017-11-05T09:32:14.407Z,99.99
2017-11-05T09:33:27.776Z,99.99
2017-11-05T09:34:40.549Z,99.99
2017-11-05T09:35:53.387Z,99.99
2017-11-05T09:37:06.738Z,99.99
2017-11-05T09:38:19.509Z,99.99
2017-11-05T09:39:32.275Z,99.99
2017-11-05T09:40:45.133Z,99.99
2017-11-05T09:41:57.914Z,99.99
2017-11-05T09:43:10.677Z,99.99
2017-11-05T09:44:23.668Z,99.99
2017-11-05T09:45:37.002Z,99.99
2017-11-05T09:46:49.774Z,99.99
2017-11-05T09:48:02.538Z,99.99
2017-11-05T09:49:15.324Z,99.99
2017-11-05T09:50:27.731Z,99.99
2017-11-05T09:51:40.592Z,99.99
2017-11-05T09:52:54.115Z,99.99
2017-11-05T09:54:07.075Z,99.99
2017-11-05T09:55:20.482Z,99.99
2017-11-05T09:56:33.962Z,99.99
2017-11-05T09:57:47.547Z,99.99
2017-11-05T09:59:01.574Z,99.99
2017-11-05T10:00:15.283Z,99.99
2017-11-05T10:01:27.956Z,99.99
2017-11-05T10:02:41.298Z,99.99
2017-11-05T10:03:54.665Z,99.99
2017-11-05T10:05:07.982Z,99.99
2017-11-05T10:06:21.582Z,99.99
2017-11-05T10:07:35.866Z,99.99
2017-11-05T10:08:48.639Z,99.99
2017-11-05T10:10:02.336Z,99.99
2017-11-05T10:11:15.814Z,99.99
2017-11-05T10:12:29.269Z,99.99
2017-11-05T10:13:42.561Z,99.99
2017-11-05T10:14:56.212Z,99.99
2017-11-05T10:16:09.096Z,99.99
2017-11-05T10:17:22.677Z,99.99
2017-11-05T10:18:36.162Z,99.99
2017-11-05T10:19:48.971Z,99.99
2017-11-05T10:21:01.740Z,99.99
2017-11-05T10:22:14.531Z,99.99
2017-11-05T10:23:27.328Z,99.99
2017-11-05T10:24:39.611Z,99.99
2017-11-05T10:25:52.940Z,99.99
2017-11-05T10:27:05.717Z,99.99
2017-11-05T10:28:18.565Z,99.99
2017-11-05T10:29:31.595Z,99.99
2017-11-05T10:30:45.681Z,99.99
2017-11-05T10:31:58.489Z,99.99
2017-11-05T10:33:11.046Z,99.99
2017-11-05T10:34:23.868Z,99.99
2017-11-05T10:35:36.689Z,99.99
2017-11-05T10:36:48.944Z,99.99
2017-11-05T10:38:02.279Z,99.99
2017-11-05T10:39:13.984Z,99.99
2017-11-05T10:40:27.306Z,99.99
2017-11-05T10:41:39.507Z,99.44
2017-11-05T10:42:52.354Z,98.24
2017-11-05T10:44:05.223Z,97.96
2017-11-05T10:45:18.394Z,97.57
2017-11-05T10:46:31.963Z,96.61
2017-11-05T10:47:45.380Z,97.42
2017-11-05T10:48:58.719Z,93.48
2017-11-05T10:50:11.087Z,96.12
2017-11-05T10:51:24.137Z,96.61
2017-11-05T10:52:37.702Z,97.14
2017-11-05T10:53:50.469Z,95.64
2017-11-05T10:55:03.761Z,95.64
2017-11-05T10:56:16.516Z,94.59
2017-11-05T10:57:29.304Z,96.32
2017-11-05T10:58:42.102Z,97.28
2017-11-05T10:59:54.891Z,97.42
2017-11-05T11:01:08.212Z,95.16
2017-11-05T11:02:21.810Z,95.64
2017-11-05T11:03:36.137Z,94.29
2017-11-05T11:04:50.362Z,94.01
2017-11-05T11:06:04.752Z,92.61
2017-11-05T11:07:19.164Z,93.28
2017-11-05T11:08:30.928Z,94.82
2017-11-05T11:09:43.878Z,92.13
2017-11-05T11:10:58.273Z,92.27
2017-11-05T11:12:12.148Z,90.67
2017-11-05T11:13:25.743Z,88.5
2017-11-05T11:14:40.056Z,85.6
2017-11-05T11:15:53.616Z,85.55
2017-11-05T11:17:06.645Z,85.94
2017-11-05T11:18:20.829Z,86.86
2017-11-05T11:19:34.391Z,87.59
2017-11-05T11:20:47.740Z,87.4
2017-11-05T11:22:01.975Z,87.53
2017-11-05T11:23:15.871Z,84.93
2017-11-05T11:24:29.861Z,85.84
2017-11-05T11:25:42.997Z,84.64
2017-11-05T11:26:56.877Z,85.99
2017-11-05T11:28:11.035Z,86.08
2017-11-05T11:29:23.525Z,85.8
2017-11-05T11:30:37.000Z,85.99
2017-11-05T11:31:50.224Z,86.66
2017-11-05T11:33:03.918Z,85.99
2017-11-05T11:34:17.600Z,84.3
2017-11-05T11:35:30.468Z,83.75
2017-11-05T11:36:44.871Z,80.9
2017-11-05T11:37:57.699Z,80.22
2017-11-05T11:39:11.617Z,80.16
2017-11-05T11:40:26.160Z,80.07
2017-11-05T11:41:40.626Z,81.19
2017-11-05T11:42:54.129Z,81.09
2017-11-05T11:44:07.495Z,82.73
2017-11-05T11:45:19.818Z,82.98
2017-11-05T11:46:31.581Z,84.43
2017-11-05T11:47:43.824Z,85.45
2017-11-05T11:48:56.763Z,85.36
2017-11-05T11:50:41.343Z,86.22
2017-11-05T11:51:55.217Z,86.28
2017-11-05T11:53:09.187Z,87.34
2017-11-05T11:54:21.984Z,88.36
2017-11-05T11:55:35.575Z,89.57
2017-11-05T11:56:47.714Z,91.4
2017-11-05T11:58:00.973Z,92.17
2017-11-05T11:59:14.824Z,90.3
2017-11-05T12:00:28.188Z,92.99
2017-11-05T12:01:42.068Z,92.32
2017-11-05T12:02:55.652Z,93.86
2017-11-05T12:04:09.929Z,94.54
2017-11-05T12:05:23.586Z,92.61
2017-11-05T12:06:36.674Z,92.51
2017-11-05T12:07:49.543Z,92.71
2017-11-05T12:09:03.424Z,93.96
2017-11-05T12:10:17.338Z,92.41
2017-11-05T12:11:30.947Z,92.61
2017-11-05T12:12:45.221Z,92.71
2017-11-05T12:13:58.789Z,92.9
2017-11-05T12:15:12.909Z,92.71
2017-11-05T12:16:27.271Z,92.51
2017-11-05T12:17:40.949Z,92.61
2017-11-05T12:18:54.451Z,92.51
2017-11-05T12:20:08.086Z,93.43
2017-11-05T12:21:21.198Z,94.15
2017-11-05T12:22:34.910Z,95.79
2017-11-05T12:23:48.753Z,98
2017-11-05T12:25:02.325Z,97.96
2017-11-05T12:26:15.887Z,99.4
2017-11-05T12:27:28.854Z,99.99
2017-11-05T12:28:41.836Z,99.99
2017-11-05T12:29:55.509Z,99.99
2017-11-05T12:31:09.046Z,99.99
2017-11-05T12:32:22.082Z,99.99
2017-11-05T12:33:35.304Z,99.99
2017-11-05T12:34:49.155Z,99.99
2017-11-05T12:36:02.637Z,99.99
2017-11-05T12:37:16.331Z,99.99
2017-11-05T12:38:29.400Z,99.99
2017-11-05T12:39:42.535Z,99.99
2017-11-05T12:40:55.854Z,99.99
2017-11-05T12:42:08.673Z,99.99
2017-11-05T12:43:22.827Z,99.99
2017-11-05T12:44:35.428Z,99.99
2017-11-05T12:45:48.190Z,99.99
2017-11-05T12:47:01.003Z,99.99
2017-11-05T12:48:14.734Z,99.99
2017-11-05T12:49:28.313Z,99.99
2017-11-05T12:50:40.969Z,99.99
2017-11-05T12:51:53.916Z,99.99
2017-11-05T12:53:06.758Z,99.99
2017-11-05T12:54:20.130Z,99.99
2017-11-05T12:55:33.433Z,99.99
2017-11-05T12:56:46.757Z,99.99
2017-11-05T12:58:00.070Z,99.99
2017-11-05T12:59:12.348Z,99.99
2017-11-05T13:00:25.155Z,99.99
2017-11-05T13:01:38.460Z,99.99
2017-11-05T13:02:51.820Z,99.99
2017-11-05T13:04:05.168Z,99.99
2017-11-05T13:05:17.437Z,99.99
2017-11-05T13:06:30.233Z,99.99
2017-11-05T13:07:43.572Z,99.99
2017-11-05T13:08:55.853Z,99.99
2017-11-05T13:10:09.369Z,99.99
2017-11-05T13:11:22.413Z,99.99
2017-11-05T13:12:35.711Z,99.99
2017-11-05T13:13:48.494Z,99.99
2017-11-05T13:15:01.822Z,99.99
2017-11-05T13:16:14.607Z,99.99
2017-11-05T13:17:27.878Z,99.99
2017-11-05T13:18:40.669Z,99.99
2017-11-05T13:19:53.456Z,99.99
2017-11-05T13:21:06.786Z,99.99
2017-11-05T13:22:19.599Z,99.99
2017-11-05T13:23:32.893Z,99.99
2017-11-05T13:24:45.154Z,99.99
2017-11-05T13:25:58.463Z,99.99
2017-11-05T13:27:11.254Z,99.99
2017-11-05T13:28:24.640Z,99.99
2017-11-05T13:29:37.487Z,99.99
2017-11-05T13:30:50.841Z,99.99
2017-11-05T13:32:03.689Z,99.99
2017-11-05T13:33:16.537Z,99.99
2017-11-05T13:34:29.866Z,99.99
2017-11-05T13:35:42.613Z,99.99
2017-11-05T13:36:55.404Z,99.99
2017-11-05T13:38:08.722Z,99.99
2017-11-05T13:39:20.962Z,99.99
2017-11-05T13:40:33.734Z,99.99
2017-11-05T13:41:47.032Z,99.99
2017-11-05T13:43:00.317Z,99.99
2017-11-05T13:44:13.113Z,99.99
2017-11-05T13:45:25.916Z,99.99
2017-11-05T13:46:38.733Z,99.99
2017-11-05T13:47:51.546Z,99.99
2017-11-05T13:49:04.875Z,99.99
2017-11-05T13:50:17.653Z,99.99
2017-11-05T13:51:30.417Z,99.99
2017-11-05T13:52:43.218Z,99.99
2017-11-05T13:53:55.992Z,99.99
2017-11-05T13:55:09.325Z,99.99
2017-11-05T13:56:22.663Z,99.99
2017-11-05T13:57:35.428Z,99.99
2017-11-05T13:58:48.244Z,99.99
2017-11-05T14:00:01.608Z,99.99
2017-11-05T14:01:13.843Z,99.99
2017-11-05T14:02:26.644Z,99.99
2017-11-05T14:03:39.446Z,99.99
2017-11-05T14:04:52.814Z,99.99
2017-11-05T14:06:04.530Z,99.99
2017-11-05T14:07:17.864Z,99.99
2017-11-05T14:08:30.691Z,99.99
2017-11-05T14:09:43.936Z,99.99
2017-11-05T14:10:57.237Z,99.99
2017-11-05T14:12:10.019Z,99.99
2017-11-05T14:13:23.394Z,99.99
2017-11-05T14:14:35.500Z,99.99
2017-11-05T14:15:49.412Z,99.99
2017-11-05T14:17:02.529Z,99.99
2017-11-05T14:18:15.800Z,99.99
2017-11-05T14:19:29.250Z,99.99
2017-11-05T14:20:43.640Z,99.99
2017-11-05T14:21:57.209Z,99.99
2017-11-05T14:23:11.192Z,99.99
2017-11-05T14:24:23.634Z,99.99
2017-11-05T14:25:37.947Z,99.99
2017-11-05T14:26:51.793Z,99.99
2017-11-05T14:28:05.239Z,99.99
2017-11-05T14:29:18.046Z,99.99
2017-11-05T14:30:31.816Z,99.99
2017-11-05T14:31:46.099Z,99.99
2017-11-05T14:32:59.697Z,99.99
2017-11-05T14:34:12.667Z,99.99
2017-11-05T14:35:27.003Z,99.99
2017-11-05T14:36:40.926Z,99.99
2017-11-05T14:37:54.985Z,99.99
2017-11-05T14:39:09.104Z,99.99
2017-11-05T14:40:23.592Z,99.99
2017-11-05T14:41:37.702Z,99.99
2017-11-05T14:42:50.026Z,99.99
2017-11-05T14:44:04.129Z,99.99
2017-11-05T14:45:18.175Z,99.99
2017-11-05T14:46:31.488Z,99.99
2017-11-05T14:47:43.741Z,99.99
2017-11-05T14:48:57.005Z,99.99
2017-11-05T14:50:11.283Z,99.99
2017-11-05T14:51:25.579Z,99.99
2017-11-05T14:52:38.477Z,99.99
2017-11-05T14:53:51.877Z,99.99
2017-11-05T14:55:05.214Z,99.99
2017-11-05T14:56:19.474Z,99.99
2017-11-05T14:57:33.732Z,99.99
2017-11-05T14:58:46.735Z,99.99
2017-11-05T15:00:00.970Z,99.99
2017-11-05T15:01:14.449Z,99.99
2017-11-05T15:02:27.794Z,99.99
2017-11-05T15:03:41.346Z,99.99
2017-11-05T15:04:54.812Z,99.99
2017-11-05T15:06:08.366Z,99.99
2017-11-05T15:07:22.627Z,99.99
2017-11-05T15:08:35.698Z,99.99
2017-11-05T15:09:49.887Z,99.99
2017-11-05T15:11:03.915Z,99.99
2017-11-05T15:12:16.801Z,99.99
2017-11-05T15:13:29.088Z,99.99
2017-11-05T15:14:43.328Z,99.99
2017-11-05T15:15:56.795Z,99.99
2017-11-05T15:17:08.985Z,99.99
2017-11-05T15:18:21.994Z,99.99
2017-11-05T15:19:34.891Z,99.99
2017-11-05T15:20:47.667Z,99.99
2017-11-05T15:22:01.727Z,99.99
2017-11-05T15:23:14.669Z,99.99
2017-11-05T15:24:28.424Z,99.99
2017-11-05T15:25:41.393Z,99.99
2017-11-05T15:26:55.062Z,99.99
2017-11-05T15:28:08.935Z,99.99
2017-11-05T15:29:23.178Z,99.99
2017-11-05T15:30:36.907Z,99.99
2017-11-05T15:31:50.485Z,99.99
2017-11-05T15:33:04.200Z,99.99
2017-11-05T15:34:18.527Z,99.99
2017-11-05T15:35:30.916Z,99.99
2017-11-05T15:36:44.210Z,99.99
2017-11-05T15:37:57.158Z,99.99
2017-11-05T15:39:10.905Z,99.99
2017-11-05T15:40:25.127Z,99.99
2017-11-05T15:41:39.552Z,99.99
2017-11-05T15:42:53.845Z,99.99
2017-11-05T15:44:07.507Z,99.99
2017-11-05T15:45:21.278Z,99.99
2017-11-05T15:46:35.462Z,99.99
2017-11-05T15:47:48.563Z,99.99